Time;durP1;ratioP1;P1;durP2;ratioP2;P2;SDS_P1;SDS_P2;PMS_P1;PMS_P2;Temp;Humidity;BMP_temperature;BMP_pressure;BME280_temperature;BME280_humidity;BME280_pressure;Samples;Min_cycle;Max_cycle;Signal;HPM_P1;HPM_P2
2022/06/27 00:02:17;;;;;;;;;;;19.60;80.60;;;;;;5057014;28;19913;-78
2022/06/27 00:04:42;;;;;;;;;;;19.60;80.70;;;;;;5060528;28;19920;-79
2022/06/27 00:07:08;;;;;;;;;;;19.60;80.70;;;;;;5064055;28;19940;-78
2022/06/27 00:09:33;;;;;;;;;;;19.60;80.70;;;;;;5064725;28;20354;-74
2022/06/27 00:11:59;;;;;;;;;;;19.60;80.70;;;;;;5045750;28;20266;-74
2022/06/27 00:14:25;;;;;;;;;;;19.60;80.70;;;;;;5045882;28;20676;-74
2022/06/27 00:16:51;;;;;;;;;;;19.60;80.90;;;;;;5045560;28;19920;-74
2022/06/27 00:19:17;;;;;;;;;;;19.60;80.80;;;;;;5051403;28;19917;-75
2022/06/27 00:21:43;;;;;;;;;;;19.60;80.90;;;;;;5045451;28;19956;-75
2022/06/27 00:24:08;;;;;;;;;;;19.50;80.70;;;;;;5045848;28;19948;-74
2022/06/27 00:26:34;;;;;;;;;;;19.60;80.70;;;;;;5045497;28;19913;-74
2022/06/27 00:28:59;;;;;;;;;;;19.60;80.90;;;;;;5045870;28;19913;-74
2022/06/27 00:31:25;;;;;;;;;;;19.50;80.80;;;;;;5045809;28;19923;-74
2022/06/27 00:33:50;;;;;;;;;;;19.50;80.80;;;;;;5048032;28;19999;-74
2022/06/27 00:36:16;;;;;;;;;;;19.50;80.80;;;;;;5051000;28;19912;-74
2022/06/27 00:38:41;;;;;;;;;;;19.50;81.00;;;;;;5048778;28;19924;-74
2022/06/27 00:41:07;;;;;;;;;;;19.50;80.90;;;;;;5045713;28;19951;-74
2022/06/27 00:43:32;;;;;;;;;;;19.50;81.10;;;;;;5045375;28;20035;-75
2022/06/27 00:45:58;;;;;;;;;;;19.50;81.10;;;;;;5049570;28;19916;-74
2022/06/27 00:48:23;;;;;;;;;;;19.50;81.10;;;;;;5045143;28;19909;-74
2022/06/27 00:50:49;;;;;;;;;;;19.50;81.10;;;;;;5046281;28;19974;-74
2022/06/27 00:53:15;;;;;;;;;;;19.50;81.20;;;;;;5044589;28;19913;-74
2022/06/27 00:55:41;;;;;;;;;;;19.50;81.10;;;;;;5045424;28;19913;-74
2022/06/27 00:58:06;;;;;;;;;;;19.40;81.10;;;;;;5045205;28;19958;-74
2022/06/27 01:00:32;;;;;;;;;;;19.40;81.10;;;;;;5045175;28;19917;-74
2022/06/27 01:02:57;;;;;;;;;;;19.40;81.20;;;;;;5063365;28;19913;-74
2022/06/27 01:05:23;;;;;;;;;;;19.40;81.30;;;;;;5055310;28;19916;-74
2022/06/27 01:07:48;;;;;;;;;;;19.40;81.40;;;;;;5045127;28;19988;-74
2022/06/27 01:10:15;;;;;;;;;;;19.40;81.30;;;;;;5044642;28;19917;-74
2022/06/27 01:12:41;;;;;;;;;;;19.40;81.40;;;;;;5045365;28;19932;-74
2022/06/27 01:15:08;;;;;;;;;;;19.40;81.40;;;;;;5045340;28;20704;-78
2022/06/27 01:17:34;;;;;;;;;;;19.40;81.50;;;;;;5044838;28;19912;-74
2022/06/27 01:19:59;;;;;;;;;;;19.40;81.50;;;;;;5045195;28;19951;-74
2022/06/27 01:22:25;;;;;;;;;;;19.40;82.20;;;;;;5057995;28;19924;-74
2022/06/27 01:24:50;;;;;;;;;;;19.40;81.50;;;;;;5042916;28;19963;-74
2022/06/27 01:27:16;;;;;;;;;;;19.40;81.60;;;;;;5044596;28;19915;-74
2022/06/27 01:29:41;;;;;;;;;;;19.40;81.50;;;;;;5044911;28;19916;-74
2022/06/27 01:32:07;;;;;;;;;;;19.30;81.50;;;;;;5046157;28;20019;-74
2022/06/27 01:34:33;;;;;;;;;;;19.30;81.60;;;;;;5047438;28;19917;-74
2022/06/27 01:36:58;;;;;;;;;;;19.30;81.80;;;;;;5044762;28;19913;-74
2022/06/27 01:39:25;;;;;;;;;;;19.30;81.70;;;;;;5053783;28;20669;-74
2022/06/27 01:41:51;;;;;;;;;;;19.30;81.70;;;;;;5044283;28;19920;-74
2022/06/27 01:44:18;;;;;;;;;;;19.30;81.90;;;;;;5044242;28;19959;-74
2022/06/27 01:46:46;;;;;;;;;;;19.30;81.80;;;;;;5044088;28;19944;-74
2022/06/27 01:49:12;;;;;;;;;;;19.30;81.90;;;;;;5048856;28;20677;-75
2022/06/27 01:51:38;;;;;;;;;;;19.30;81.90;;;;;;5050412;28;19916;-74
2022/06/27 01:54:05;;;;;;;;;;;19.30;81.90;;;;;;5053166;28;19963;-74
2022/06/27 01:56:30;;;;;;;;;;;19.30;81.80;;;;;;5051731;28;19921;-74
2022/06/27 01:58:57;;;;;;;;;;;19.30;81.90;;;;;;5052011;28;20264;-74
2022/06/27 02:01:24;;;;;;;;;;;19.30;82.00;;;;;;5050193;28;19967;-74
2022/06/27 02:03:50;;;;;;;;;;;19.30;82.10;;;;;;5067409;28;20610;-74
2022/06/27 02:06:15;;;;;;;;;;;19.30;82.10;;;;;;5066158;28;19917;-74
2022/06/27 02:08:41;;;;;;;;;;;19.30;82.30;;;;;;5065552;28;19916;-74
2022/06/27 02:11:07;;;;;;;;;;;19.20;82.00;;;;;;5066844;28;19920;-74
2022/06/27 02:13:33;;;;;;;;;;;19.30;82.20;;;;;;5049445;28;19930;-74
2022/06/27 02:16:09;;;;;;;;;;;19.30;82.30;;;;;;5047286;28;19909;-74
2022/06/27 02:18:35;;;;;;;;;;;19.20;82.20;;;;;;5048788;28;19913;-74
2022/06/27 02:21:01;;;;;;;;;;;19.20;82.20;;;;;;5053957;28;20015;-74
2022/06/27 02:23:26;;;;;;;;;;;19.20;82.20;;;;;;5066925;28;20019;-74
2022/06/27 02:25:53;;;;;;;;;;;19.20;82.20;;;;;;5066511;28;19913;-74
2022/06/27 02:28:19;;;;;;;;;;;19.20;82.20;;;;;;5064761;28;19916;-74
2022/06/27 02:30:45;;;;;;;;;;;19.20;82.30;;;;;;5065999;28;20005;-74
2022/06/27 02:33:11;;;;;;;;;;;19.20;82.30;;;;;;5066442;28;19913;-74
2022/06/27 02:35:39;;;;;;;;;;;19.20;82.30;;;;;;5066222;28;19912;-74
2022/06/27 02:38:05;;;;;;;;;;;19.20;82.30;;;;;;5063487;28;20027;-74
2022/06/27 02:40:30;;;;;;;;;;;19.20;82.40;;;;;;5046518;28;20003;-74
2022/06/27 02:42:57;;;;;;;;;;;19.20;82.50;;;;;;5048182;28;20007;-74
2022/06/27 02:45:24;;;;;;;;;;;19.20;82.60;;;;;;5053039;28;19995;-74
2022/06/27 02:47:50;;;;;;;;;;;19.20;82.40;;;;;;5048328;28;19920;-74
2022/06/27 02:50:16;;;;;;;;;;;19.20;82.50;;;;;;5047922;28;19997;-74
2022/06/27 02:52:44;;;;;;;;;;;19.20;82.60;;;;;;5065729;28;19916;-74
2022/06/27 02:55:14;;;;;;;;;;;19.10;82.40;;;;;;5066268;28;19958;-74
2022/06/27 02:58:02;;;;;;;;;;;19.20;82.50;;;;;;5065893;28;19920;-74
2022/06/27 03:00:29;;;;;;;;;;;19.20;82.60;;;;;;5062387;28;19957;-74
2022/06/27 03:02:55;;;;;;;;;;;19.20;82.50;;;;;;5050065;28;20659;-74
2022/06/27 03:05:20;;;;;;;;;;;19.10;82.60;;;;;;5065789;28;19912;-75
2022/06/27 03:07:46;;;;;;;;;;;19.10;82.50;;;;;;5065772;28;19919;-74
2022/06/27 03:10:12;;;;;;;;;;;19.10;82.60;;;;;;5064502;28;20010;-74
2022/06/27 03:12:37;;;;;;;;;;;19.10;82.60;;;;;;5055538;28;19909;-74
2022/06/27 03:15:03;;;;;;;;;;;19.10;82.60;;;;;;5047461;28;19913;-74
2022/06/27 03:17:29;;;;;;;;;;;19.10;82.80;;;;;;5048734;28;20306;-74
2022/06/27 03:19:56;;;;;;;;;;;19.10;82.70;;;;;;5051060;28;19919;-74
2022/06/27 03:22:21;;;;;;;;;;;19.10;82.50;;;;;;5048073;28;19913;-74
2022/06/27 03:24:47;;;;;;;;;;;19.10;82.60;;;;;;5047519;28;19909;-74
2022/06/27 03:27:12;;;;;;;;;;;19.10;82.70;;;;;;5046998;28;20373;-74
2022/06/27 03:29:38;;;;;;;;;;;19.10;82.60;;;;;;5047215;28;19999;-74
2022/06/27 03:32:04;;;;;;;;;;;19.10;82.70;;;;;;5047275;28;19917;-74
2022/06/27 03:34:30;;;;;;;;;;;19.10;82.70;;;;;;5058743;28;19925;-74
2022/06/27 03:36:55;;;;;;;;;;;19.10;82.70;;;;;;5047027;28;19992;-74
2022/06/27 03:39:21;;;;;;;;;;;19.10;82.70;;;;;;5050663;28;19913;-74
2022/06/27 03:41:47;;;;;;;;;;;19.00;82.80;;;;;;5047127;28;19912;-74
2022/06/27 03:44:12;;;;;;;;;;;19.10;82.80;;;;;;5049529;28;19916;-75
2022/06/27 03:46:38;;;;;;;;;;;19.10;82.80;;;;;;5052215;28;19920;-74
2022/06/27 03:51:47;;;;;;;;;;;19.10;82.70;;;;;;5053857;28;19998;-74
2022/06/27 03:54:13;;;;;;;;;;;19.10;82.70;;;;;;5046910;28;19995;-74
2022/06/27 03:56:39;;;;;;;;;;;19.10;82.80;;;;;;5064710;28;20280;-74
2022/06/27 03:59:04;;;;;;;;;;;19.10;82.80;;;;;;5064957;28;19920;-74
2022/06/27 04:01:30;;;;;;;;;;;19.10;82.70;;;;;;5062706;28;19924;-75
2022/06/27 04:03:56;;;;;;;;;;;19.10;82.80;;;;;;5057147;28;19913;-74
2022/06/27 04:06:21;;;;;;;;;;;19.00;82.80;;;;;;5046142;28;19936;-74
2022/06/27 04:08:47;;;;;;;;;;;19.00;82.80;;;;;;5051613;28;19960;-74
2022/06/27 04:11:12;;;;;;;;;;;19.00;82.80;;;;;;5045656;28;19921;-74
2022/06/27 04:13:38;;;;;;;;;;;19.00;82.90;;;;;;5046307;28;19912;-74
2022/06/27 04:16:04;;;;;;;;;;;19.00;82.90;;;;;;5046394;28;20010;-78
2022/06/27 04:18:30;;;;;;;;;;;19.10;83.00;;;;;;5056549;28;19913;-79
2022/06/27 04:20:55;;;;;;;;;;;19.10;82.80;;;;;;5061982;28;19919;-78
2022/06/27 04:23:21;;;;;;;;;;;19.00;82.80;;;;;;5046375;28;19913;-78
2022/06/27 04:25:47;;;;;;;;;;;19.00;82.80;;;;;;5049332;28;19942;-78
2022/06/27 04:28:13;;;;;;;;;;;19.00;82.80;;;;;;5046119;28;19917;-78
2022/06/27 04:30:40;;;;;;;;;;;19.00;82.80;;;;;;5045828;28;19958;-79
2022/06/27 04:33:07;;;;;;;;;;;19.00;82.80;;;;;;5047536;28;19913;-79
2022/06/27 04:35:33;;;;;;;;;;;19.00;82.90;;;;;;5060578;28;19963;-79
2022/06/27 04:37:58;;;;;;;;;;;19.00;83.00;;;;;;5053231;28;20381;-78
2022/06/27 04:40:25;;;;;;;;;;;19.00;83.00;;;;;;5053959;28;20791;-78
2022/06/27 04:42:50;;;;;;;;;;;19.00;83.00;;;;;;5050839;28;19942;-78
2022/06/27 04:45:17;;;;;;;;;;;19.00;83.10;;;;;;5045734;28;20039;-78
2022/06/27 04:47:43;;;;;;;;;;;19.00;83.10;;;;;;5045169;28;19912;-78
2022/06/27 04:50:09;;;;;;;;;;;19.00;83.00;;;;;;5044368;28;19913;-74
2022/06/27 04:52:35;;;;;;;;;;;19.00;83.00;;;;;;5062044;28;19919;-74
2022/06/27 04:55:02;;;;;;;;;;;19.00;83.00;;;;;;5062132;28;19913;-74
2022/06/27 04:57:27;;;;;;;;;;;19.00;83.10;;;;;;5062884;28;19912;-74
2022/06/27 04:59:53;;;;;;;;;;;19.00;83.20;;;;;;5061725;28;19943;-74
2022/06/27 05:02:18;;;;;;;;;;;19.00;83.10;;;;;;5045024;28;20532;-74
2022/06/27 05:04:44;;;;;;;;;;;19.00;83.20;;;;;;5052806;28;19908;-73
2022/06/27 05:07:10;;;;;;;;;;;19.00;83.30;;;;;;5061985;28;20612;-74
2022/06/27 05:09:35;;;;;;;;;;;19.00;83.40;;;;;;5061864;28;19920;-73
2022/06/27 05:12:01;;;;;;;;;;;18.90;83.40;;;;;;5063217;28;19920;-73
2022/06/27 05:14:26;;;;;;;;;;;19.00;83.50;;;;;;5061533;28;20026;-73
2022/06/27 05:16:52;;;;;;;;;;;19.00;83.50;;;;;;5049364;28;19923;-73
2022/06/27 05:19:17;;;;;;;;;;;19.00;83.50;;;;;;5042904;28;19965;-73
2022/06/27 05:21:43;;;;;;;;;;;19.00;83.40;;;;;;5054667;28;19974;-74
2022/06/27 05:24:08;;;;;;;;;;;19.00;83.60;;;;;;5063174;28;20285;-73
2022/06/27 05:26:35;;;;;;;;;;;19.00;83.60;;;;;;5062996;28;19995;-74
2022/06/27 05:29:01;;;;;;;;;;;19.00;83.60;;;;;;5063188;28;19923;-74
2022/06/27 05:31:27;;;;;;;;;;;19.00;83.60;;;;;;5061008;28;19928;-73
2022/06/27 05:33:53;;;;;;;;;;;19.00;83.70;;;;;;5044849;28;20289;-77
2022/06/27 05:36:20;;;;;;;;;;;19.00;83.50;;;;;;5063260;28;19923;-77
2022/06/27 05:38:46;;;;;;;;;;;19.10;83.60;;;;;;5055465;28;19924;-78
2022/06/27 05:41:12;;;;;;;;;;;19.10;83.50;;;;;;5043481;28;19913;-78
2022/06/27 05:43:38;;;;;;;;;;;19.10;84.20;;;;;;5045172;28;19967;-78
2022/06/27 05:46:04;;;;;;;;;;;19.20;83.50;;;;;;5044881;28;19921;-78
2022/06/27 05:48:29;;;;;;;;;;;19.20;83.40;;;;;;5049690;28;19919;-77
2022/06/27 05:50:56;;;;;;;;;;;19.20;83.30;;;;;;5061143;28;19974;-78
2022/06/27 05:53:21;;;;;;;;;;;19.30;83.40;;;;;;5062493;28;20038;-78
2022/06/27 05:55:47;;;;;;;;;;;19.40;83.30;;;;;;5061602;28;20600;-78
2022/06/27 05:58:13;;;;;;;;;;;19.40;83.10;;;;;;5062923;28;19943;-78
2022/06/27 06:00:39;;;;;;;;;;;19.40;83.00;;;;;;5056438;28;19951;-78
2022/06/27 06:03:04;;;;;;;;;;;19.50;83.10;;;;;;5043917;28;20357;-74
2022/06/27 06:05:31;;;;;;;;;;;19.50;83.00;;;;;;5046421;28;19920;-74
2022/06/27 06:08:03;;;;;;;;;;;19.50;83.10;;;;;;5043342;28;19963;-74
2022/06/27 06:10:29;;;;;;;;;;;19.50;83.00;;;;;;5042447;28;19917;-74
2022/06/27 06:12:55;;;;;;;;;;;19.50;83.00;;;;;;5043321;28;19909;-74
2022/06/27 06:15:21;;;;;;;;;;;19.50;83.00;;;;;;5045175;28;19920;-74
2022/06/27 06:17:47;;;;;;;;;;;19.60;83.00;;;;;;5044514;28;19913;-74
2022/06/27 06:20:13;;;;;;;;;;;19.60;83.10;;;;;;5044723;28;19917;-75
2022/06/27 06:22:40;;;;;;;;;;;19.60;83.10;;;;;;5052154;28;19917;-74
2022/06/27 06:25:07;;;;;;;;;;;19.50;83.20;;;;;;5044781;28;20008;-74
2022/06/27 06:27:33;;;;;;;;;;;19.50;83.30;;;;;;5044716;28;19917;-74
2022/06/27 06:30:02;;;;;;;;;;;19.50;83.30;;;;;;5044659;28;19913;-74
2022/06/27 06:32:28;;;;;;;;;;;19.50;83.30;;;;;;5044817;28;19909;-74
2022/06/27 06:34:54;;;;;;;;;;;19.60;83.50;;;;;;5056969;28;19913;-75
2022/06/27 06:37:19;;;;;;;;;;;19.50;83.50;;;;;;5066438;28;19920;-75
2022/06/27 06:39:45;;;;;;;;;;;19.50;83.60;;;;;;5058096;28;20027;-75
2022/06/27 06:42:11;;;;;;;;;;;19.60;83.90;;;;;;5048131;28;20384;-75
2022/06/27 06:44:37;;;;;;;;;;;19.60;83.70;;;;;;5048597;28;19913;-78
2022/06/27 06:47:03;;;;;;;;;;;19.60;83.60;;;;;;5048134;28;20037;-78
2022/06/27 06:49:29;;;;;;;;;;;19.60;84.30;;;;;;5048454;28;19912;-78
2022/06/27 06:51:54;;;;;;;;;;;19.60;83.60;;;;;;5059514;28;19916;-78
2022/06/27 06:54:20;;;;;;;;;;;19.60;83.70;;;;;;5066331;28;19952;-78
2022/06/27 06:56:48;;;;;;;;;;;19.60;83.70;;;;;;5052514;28;20563;-78
2022/06/27 06:59:14;;;;;;;;;;;19.60;83.70;;;;;;5046618;28;20039;-78
2022/06/27 07:01:40;;;;;;;;;;;19.60;83.60;;;;;;5060264;28;20369;-78
2022/06/27 07:04:05;;;;;;;;;;;19.60;83.70;;;;;;5065080;28;19912;-78
2022/06/27 07:06:32;;;;;;;;;;;19.60;83.70;;;;;;5066305;28;19913;-79
2022/06/27 07:08:58;;;;;;;;;;;19.60;83.70;;;;;;5066139;28;19954;-78
2022/06/27 07:11:25;;;;;;;;;;;19.60;83.70;;;;;;5066206;28;19923;-78
2022/06/27 07:13:51;;;;;;;;;;;19.60;83.80;;;;;;5053476;28;19924;-79
2022/06/27 07:16:18;;;;;;;;;;;19.60;83.80;;;;;;5052490;28;20337;-78
2022/06/27 07:18:44;;;;;;;;;;;19.60;83.80;;;;;;5066687;28;19938;-78
2022/06/27 07:21:11;;;;;;;;;;;19.70;83.70;;;;;;5066626;28;19941;-78
2022/06/27 07:23:37;;;;;;;;;;;19.60;83.80;;;;;;5066145;28;19912;-79
2022/06/27 07:26:03;;;;;;;;;;;19.70;83.90;;;;;;5066013;28;20361;-79
2022/06/27 07:28:29;;;;;;;;;;;19.60;83.90;;;;;;5065747;28;20364;-79
2022/06/27 07:30:58;;;;;;;;;;;19.60;84.50;;;;;;5057269;28;19921;-78
2022/06/27 07:33:24;;;;;;;;;;;19.70;84.00;;;;;;5053612;28;19909;-75
2022/06/27 07:35:50;;;;;;;;;;;19.60;83.90;;;;;;5065667;28;20015;-75
2022/06/27 07:38:15;;;;;;;;;;;19.60;83.90;;;;;;5061719;28;20463;-75
2022/06/27 07:40:42;;;;;;;;;;;19.60;84.10;;;;;;5047053;28;19913;-75
2022/06/27 07:43:09;;;;;;;;;;;19.70;84.10;;;;;;5046748;28;19913;-74
2022/06/27 07:45:38;;;;;;;;;;;19.70;84.00;;;;;;5053266;28;20016;-75
2022/06/27 07:48:05;;;;;;;;;;;19.70;84.00;;;;;;5047425;28;20554;-75
2022/06/27 07:50:42;;;;;;;;;;;19.70;83.90;;;;;;5046377;28;19978;-74
2022/06/27 07:53:12;;;;;;;;;;;19.70;84.00;;;;;;5065139;28;20050;-75
2022/06/27 07:55:39;;;;;;;;;;;19.70;83.90;;;;;;5052211;28;19913;-74
2022/06/27 07:58:07;;;;;;;;;;;19.70;83.90;;;;;;5046531;28;20393;-75
2022/06/27 08:00:33;;;;;;;;;;;19.70;84.00;;;;;;5046337;28;19948;-75
2022/06/27 08:02:59;;;;;;;;;;;19.70;83.90;;;;;;5046584;28;19909;-75
2022/06/27 08:05:25;;;;;;;;;;;19.70;84.00;;;;;;5049298;28;19973;-75
2022/06/27 08:07:50;;;;;;;;;;;19.70;83.90;;;;;;5046349;28;19982;-75
2022/06/27 08:10:16;;;;;;;;;;;19.70;84.00;;;;;;5046297;28;19924;-75
2022/06/27 08:12:42;;;;;;;;;;;19.70;84.10;;;;;;5046625;28;19995;-75
2022/06/27 08:15:09;;;;;;;;;;;19.70;84.00;;;;;;5046145;28;20332;-75
2022/06/27 08:17:34;;;;;;;;;;;19.70;84.00;;;;;;5046224;28;19912;-75
2022/06/27 08:20:00;;;;;;;;;;;19.70;83.90;;;;;;5046225;28;20337;-74
2022/06/27 08:22:25;;;;;;;;;;;19.70;83.80;;;;;;5051826;28;20370;-74
2022/06/27 08:24:51;;;;;;;;;;;19.80;83.90;;;;;;5046342;28;19913;-74
2022/06/27 08:27:16;;;;;;;;;;;19.70;83.90;;;;;;5045998;28;20350;-74
2022/06/27 08:29:43;;;;;;;;;;;19.80;84.00;;;;;;5046250;28;19912;-75
2022/06/27 08:32:09;;;;;;;;;;;19.80;84.10;;;;;;5046061;28;19947;-75
2022/06/27 08:34:35;;;;;;;;;;;19.80;84.00;;;;;;5052442;28;20601;-74
2022/06/27 08:37:02;;;;;;;;;;;19.80;83.90;;;;;;5056700;28;19958;-75
2022/06/27 08:39:28;;;;;;;;;;;19.80;84.00;;;;;;5052115;28;19924;-75
2022/06/27 08:41:55;;;;;;;;;;;19.90;84.10;;;;;;5045835;28;20406;-74
2022/06/27 08:44:23;;;;;;;;;;;19.90;83.90;;;;;;5045382;28;19916;-75
2022/06/27 08:46:51;;;;;;;;;;;19.90;83.80;;;;;;5062822;28;20764;-75
2022/06/27 08:49:16;;;;;;;;;;;19.90;83.80;;;;;;5064245;28;19912;-74
2022/06/27 08:51:43;;;;;;;;;;;19.90;83.80;;;;;;5056598;28;20007;-75
2022/06/27 08:54:08;;;;;;;;;;;19.90;83.80;;;;;;5046511;28;19917;-75
2022/06/27 08:56:37;;;;;;;;;;;20.00;83.80;;;;;;5044227;28;21862;-75
2022/06/27 08:59:03;;;;;;;;;;;20.00;83.70;;;;;;5045813;28;20292;-75
2022/06/27 09:01:30;;;;;;;;;;;20.00;83.70;;;;;;5045693;28;20011;-75
2022/06/27 09:04:03;;;;;;;;;;;20.00;83.70;;;;;;5047024;28;19913;-75
2022/06/27 09:06:32;;;;;;;;;;;20.00;83.50;;;;;;5063668;28;20003;-75
2022/06/27 09:09:05;;;;;;;;;;;20.10;83.50;;;;;;5052482;28;19931;-75
2022/06/27 09:11:32;;;;;;;;;;;20.10;83.40;;;;;;5057271;28;20015;-75
2022/06/27 09:13:58;;;;;;;;;;;20.10;83.30;;;;;;5045435;28;20631;-75
2022/06/27 09:16:24;;;;;;;;;;;20.10;83.30;;;;;;5044831;28;20408;-74
2022/06/27 09:18:49;;;;;;;;;;;20.10;83.30;;;;;;5045350;28;19909;-75
2022/06/27 09:21:15;;;;;;;;;;;20.10;83.40;;;;;;5052260;28;19912;-75
2022/06/27 09:24:01;;;;;;;;;;;20.10;83.30;;;;;;5063306;28;20007;-75
2022/06/27 09:26:30;;;;;;;;;;;20.10;83.30;;;;;;5063170;28;19997;-75
2022/06/27 09:28:56;;;;;;;;;;;20.10;83.50;;;;;;5061915;28;20665;-75
2022/06/27 09:31:25;;;;;;;;;;;20.10;83.30;;;;;;5063538;28;19916;-75
2022/06/27 09:34:08;;;;;;;;;;;20.10;83.20;;;;;;5063536;28;19972;-75
2022/06/27 09:36:34;;;;;;;;;;;20.10;83.20;;;;;;5061291;28;19916;-74
2022/06/27 09:39:01;;;;;;;;;;;20.20;83.20;;;;;;5052114;28;19912;-74
2022/06/27 09:41:29;;;;;;;;;;;20.20;83.10;;;;;;5047383;28;19916;-75
2022/06/27 09:44:00;;;;;;;;;;;20.20;83.00;;;;;;5048318;28;20669;-75
2022/06/27 09:46:27;;;;;;;;;;;20.20;83.00;;;;;;5043085;28;19956;-74
2022/06/27 09:48:54;;;;;;;;;;;20.30;82.90;;;;;;5044913;28;19995;-74
2022/06/27 09:51:20;;;;;;;;;;;20.30;82.90;;;;;;5052349;28;19944;-78
2022/06/27 09:53:50;;;;;;;;;;;20.40;82.80;;;;;;5062773;28;19913;-78
2022/06/27 09:56:18;;;;;;;;;;;20.40;82.60;;;;;;5048531;28;19955;-78
2022/06/27 09:58:44;;;;;;;;;;;20.50;82.50;;;;;;5050046;28;19928;-78
2022/06/27 10:01:10;;;;;;;;;;;20.50;82.30;;;;;;5048343;28;19923;-78
2022/06/27 10:03:36;;;;;;;;;;;20.50;82.30;;;;;;5047046;28;19913;-79
2022/06/27 10:06:03;;;;;;;;;;;20.60;82.30;;;;;;5047756;28;19912;-78
2022/06/27 10:08:32;;;;;;;;;;;20.60;82.30;;;;;;5045027;28;19920;-78
2022/06/27 10:11:08;;;;;;;;;;;20.60;82.20;;;;;;5058165;28;19917;-78
2022/06/27 10:13:35;;;;;;;;;;;20.60;82.20;;;;;;5055863;28;20377;-78
2022/06/27 10:16:08;;;;;;;;;;;20.60;82.20;;;;;;5066949;28;19923;-78
2022/06/27 10:18:52;;;;;;;;;;;20.70;82.50;;;;;;5059699;28;19917;-78
2022/06/27 10:21:25;;;;;;;;;;;20.70;82.20;;;;;;5062654;28;20345;-78
2022/06/27 10:24:11;;;;;;;;;;;20.70;82.10;;;;;;5053361;28;20277;-78
2022/06/27 10:26:42;;;;;;;;;;;20.70;82.10;;;;;;5064460;28;19920;-78
2022/06/27 10:29:26;;;;;;;;;;;20.80;82.30;;;;;;5064229;28;19912;-79
2022/06/27 10:31:52;;;;;;;;;;;20.90;81.80;;;;;;5053165;28;20419;-78
2022/06/27 10:34:18;;;;;;;;;;;20.90;81.50;;;;;;5055625;28;19924;-78
2022/06/27 10:36:43;;;;;;;;;;;21.00;81.40;;;;;;5061133;28;19917;-78
2022/06/27 10:39:19;;;;;;;;;;;21.10;81.50;;;;;;5059823;28;19913;-78
2022/06/27 10:41:44;;;;;;;;;;;21.10;81.00;;;;;;5062960;28;20258;-78
2022/06/27 10:44:29;;;;;;;;;;;21.20;80.80;;;;;;5050619;28;19912;-78
2022/06/27 10:46:55;;;;;;;;;;;21.30;80.60;;;;;;5066207;28;20603;-78
2022/06/27 10:49:21;;;;;;;;;;;21.30;80.40;;;;;;5065732;28;19996;-78
2022/06/27 10:51:47;;;;;;;;;;;21.40;80.40;;;;;;5067077;28;19955;-78
2022/06/27 10:54:13;;;;;;;;;;;21.40;80.20;;;;;;5049063;28;19951;-78
2022/06/27 10:56:42;;;;;;;;;;;21.40;80.30;;;;;;5047806;28;19913;-78
2022/06/27 10:59:11;;;;;;;;;;;21.40;80.20;;;;;;5066442;28;20007;-78
2022/06/27 11:01:36;;;;;;;;;;;21.50;80.10;;;;;;5079300;28;20597;-78
2022/06/27 11:04:02;;;;;;;;;;;21.50;80.10;;;;;;5066108;28;19993;-78
2022/06/27 11:06:27;;;;;;;;;;;21.50;80.20;;;;;;5053962;28;19952;-78
2022/06/27 11:08:54;;;;;;;;;;;21.50;80.40;;;;;;5047857;28;19923;-78
2022/06/27 11:11:21;;;;;;;;;;;21.50;80.30;;;;;;5047693;28;19960;-78
2022/06/27 11:13:47;;;;;;;;;;;21.50;80.30;;;;;;5047453;28;19944;-78
2022/06/27 11:16:15;;;;;;;;;;;21.50;80.40;;;;;;5047177;28;19913;-78
2022/06/27 11:18:44;;;;;;;;;;;21.40;80.40;;;;;;5047409;28;19912;-79
2022/06/27 11:21:11;;;;;;;;;;;21.40;80.70;;;;;;5053593;28;20428;-78
2022/06/27 11:23:55;;;;;;;;;;;21.40;81.00;;;;;;5056244;28;19912;-78
2022/06/27 11:26:23;;;;;;;;;;;21.40;80.80;;;;;;5063822;28;20630;-78
2022/06/27 11:34:18;;;;;;;;;;;21.40;80.90;;;;;;5053895;28;20316;-78
2022/06/27 11:36:44;;;;;;;;;;;21.40;80.60;;;;;;5065136;28;19909;-78
2022/06/27 11:39:11;;;;;;;;;;;21.50;80.60;;;;;;5059838;28;19912;-79
2022/06/27 11:41:40;;;;;;;;;;;21.60;80.60;;;;;;5055465;28;19923;-78
2022/06/27 11:44:07;;;;;;;;;;;21.60;80.40;;;;;;5065501;28;20749;-78
2022/06/27 11:46:36;;;;;;;;;;;21.60;80.30;;;;;;5063175;28;19925;-78
2022/06/27 11:49:04;;;;;;;;;;;21.60;80.20;;;;;;5050356;28;19913;-79
2022/06/27 11:51:34;;;;;;;;;;;21.60;80.10;;;;;;5055304;28;19949;-78
2022/06/27 11:54:01;;;;;;;;;;;21.60;80.20;;;;;;5054409;28;19913;-79
2022/06/27 11:56:28;;;;;;;;;;;21.60;80.20;;;;;;5052352;28;19938;-78
2022/06/27 11:58:58;;;;;;;;;;;21.60;80.40;;;;;;5048720;28;19912;-78
2022/06/27 12:01:24;;;;;;;;;;;21.60;80.50;;;;;;5046727;28;20679;-79
2022/06/27 12:04:08;;;;;;;;;;;21.60;80.50;;;;;;5051930;28;19916;-78
2022/06/27 12:06:55;;;;;;;;;;;21.60;80.40;;;;;;5065336;28;20241;-78
2022/06/27 12:09:22;;;;;;;;;;;21.60;80.40;;;;;;5063970;28;19912;-78
2022/06/27 12:11:52;;;;;;;;;;;21.60;80.40;;;;;;5063209;28;20595;-79
2022/06/27 12:14:19;;;;;;;;;;;21.60;80.30;;;;;;5054414;28;20018;-78
2022/06/27 12:16:46;;;;;;;;;;;21.60;80.40;;;;;;5062751;28;19919;-78
2022/06/27 12:19:11;;;;;;;;;;;21.60;80.40;;;;;;5051869;28;19913;-78
2022/06/27 12:21:37;;;;;;;;;;;21.70;80.40;;;;;;5055982;28;19913;-78
2022/06/27 12:24:03;;;;;;;;;;;21.80;80.40;;;;;;5065562;28;19923;-78
2022/06/27 12:26:28;;;;;;;;;;;21.90;80.00;;;;;;5064904;28;19919;-79
2022/06/27 12:28:54;;;;;;;;;;;22.00;79.50;;;;;;5063551;28;19916;-78
2022/06/27 12:31:19;;;;;;;;;;;22.10;79.30;;;;;;5063992;28;19923;-78
2022/06/27 12:33:45;;;;;;;;;;;22.20;79.00;;;;;;5063611;28;19916;-78
2022/06/27 12:36:11;;;;;;;;;;;22.30;79.00;;;;;;5064586;28;19939;-78
2022/06/27 12:38:36;;;;;;;;;;;22.40;78.50;;;;;;5058535;28;19913;-78
2022/06/27 12:41:17;;;;;;;;;;;22.50;78.00;;;;;;5046280;28;20014;-78
2022/06/27 12:43:44;;;;;;;;;;;22.60;77.90;;;;;;5064199;28;20007;-78
2022/06/27 12:46:10;;;;;;;;;;;22.60;77.80;;;;;;5050068;28;19927;-78
2022/06/27 12:48:37;;;;;;;;;;;22.70;77.60;;;;;;5045888;28;19913;-78
2022/06/27 12:51:03;;;;;;;;;;;22.70;77.40;;;;;;5051002;28;20013;-78
2022/06/27 12:53:29;;;;;;;;;;;22.80;77.40;;;;;;5063681;28;20347;-78
2022/06/27 12:55:54;;;;;;;;;;;22.80;77.50;;;;;;5061969;28;19908;-78
2022/06/27 12:58:21;;;;;;;;;;;22.80;77.60;;;;;;5063978;28;19956;-78
2022/06/27 13:00:46;;;;;;;;;;;22.80;77.40;;;;;;5046115;28;20001;-78
2022/06/27 13:03:12;;;;;;;;;;;22.80;77.40;;;;;;5045652;28;19913;-79
2022/06/27 13:05:37;;;;;;;;;;;22.80;77.50;;;;;;5060043;28;19913;-78
2022/06/27 13:08:04;;;;;;;;;;;22.70;77.50;;;;;;5057251;28;19913;-74
2022/06/27 13:10:30;;;;;;;;;;;22.70;77.80;;;;;;5043814;28;20624;-74
2022/06/27 13:12:55;;;;;;;;;;;22.70;78.00;;;;;;5045247;28;19913;-75
2022/06/27 13:15:21;;;;;;;;;;;22.70;78.10;;;;;;5044571;28;19919;-75
2022/06/27 13:17:47;;;;;;;;;;;22.60;78.10;;;;;;5046703;28;20381;-75
2022/06/27 13:20:12;;;;;;;;;;;22.60;78.80;;;;;;5045717;28;19916;-78
2022/06/27 13:22:38;;;;;;;;;;;22.60;78.30;;;;;;5045874;28;20448;-75
2022/06/27 13:25:04;;;;;;;;;;;22.60;78.30;;;;;;5043790;28;19920;-75
2022/06/27 13:27:30;;;;;;;;;;;22.60;78.40;;;;;;5044836;28;19919;-75
2022/06/27 13:29:55;;;;;;;;;;;22.60;78.40;;;;;;5044817;28;19921;-75
2022/06/27 13:32:21;;;;;;;;;;;22.60;78.50;;;;;;5044154;28;20332;-75
2022/06/27 13:34:46;;;;;;;;;;;22.60;78.40;;;;;;5049511;28;19917;-75
2022/06/27 13:37:12;;;;;;;;;;;22.60;78.30;;;;;;5048705;28;19971;-75
2022/06/27 13:39:38;;;;;;;;;;;22.70;78.20;;;;;;5049635;28;19923;-75
2022/06/27 13:42:04;;;;;;;;;;;22.70;78.10;;;;;;5041299;28;19920;-75
2022/06/27 13:44:32;;;;;;;;;;;22.80;78.00;;;;;;5053763;28;19912;-75
2022/06/27 13:46:58;;;;;;;;;;;22.80;77.90;;;;;;5054163;28;20010;-75
2022/06/27 13:49:23;;;;;;;;;;;22.80;77.80;;;;;;5049623;28;20765;-75
2022/06/27 13:51:49;;;;;;;;;;;23.00;77.50;;;;;;5063914;28;19920;-75
2022/06/27 13:54:14;;;;;;;;;;;23.20;76.70;;;;;;5051849;28;19913;-78
2022/06/27 13:56:40;;;;;;;;;;;23.40;76.30;;;;;;5068554;28;19912;-78
2022/06/27 13:59:05;;;;;;;;;;;23.50;75.60;;;;;;5069851;28;19920;-74
2022/06/27 14:01:31;;;;;;;;;;;23.70;75.30;;;;;;5069529;28;19987;-78
2022/06/27 14:03:56;;;;;;;;;;;23.70;75.20;;;;;;5068222;28;19940;-75
2022/06/27 14:09:06;;;;;;;;;;;23.90;74.80;;;;;;5061297;28;19939;-74
2022/06/27 14:11:33;;;;;;;;;;;23.90;74.70;;;;;;5050979;28;19917;-75
2022/06/27 14:13:58;;;;;;;;;;;24.10;74.50;;;;;;5050987;28;20614;-78
2022/06/27 14:16:24;;;;;;;;;;;24.20;74.40;;;;;;5048932;28;19913;-75
2022/06/27 14:18:49;;;;;;;;;;;24.20;74.20;;;;;;5047380;28;20675;-75
2022/06/27 14:21:15;;;;;;;;;;;24.20;74.40;;;;;;5054763;28;19913;-74
2022/06/27 14:23:40;;;;;;;;;;;24.30;74.40;;;;;;5050623;28;19962;-75
2022/06/27 14:26:06;;;;;;;;;;;24.30;74.10;;;;;;5055152;28;19921;-78